Terminal Aerodrome Forecast
Issued by NWS

Home | Current Version | Previous Version | Graphics & Text | Print | Product List | Glossary On
Versions: 1 2 3 4 5 6 7 8 9 10 11 12 13 14 15 16 17 18 19 20
083
FTUS43 KABR 230421 AAA
TAFATY
TAF AMD
KATY 230421Z 2304/2324 01016KT P6SM OVC010
     FM231200 03011KT P6SM BKN008 OVC011
     FM231400 04011KT P6SM OVC010
     FM231800 05014G21KT 3SM -SN BR OVC015
     FM232200 05020G28KT 1 1/2SM -SN BLSN BR OVC025=

USA.gov is the U.S. government's official web portal to all federal, state and local government web resources and services.